sensor_id;sensor_type;location;lat;lon;timestamp;P1;durP1;ratioP1;P2;durP2;ratioP2
74912;SDS011;63878;55.624;37.304;2023-06-26T00:08:48;8.93;;;6.78;;
74912;SDS011;63878;55.624;37.304;2023-06-26T00:18:49;11.63;;;8.45;;
74912;SDS011;63878;55.624;37.304;2023-06-26T00:28:50;8.95;;;6.28;;
74912;SDS011;63878;55.624;37.304;2023-06-26T00:38:50;7.47;;;5.40;;
74912;SDS011;63878;55.624;37.304;2023-06-26T00:48:50;6.60;;;4.95;;
74912;SDS011;63878;55.624;37.304;2023-06-26T00:58:52;7.47;;;5.72;;
74912;SDS011;63878;55.624;37.304;2023-06-26T01:08:53;7.57;;;5.45;;
74912;SDS011;63878;55.624;37.304;2023-06-26T01:18:53;12.47;;;7.73;;
74912;SDS011;63878;55.624;37.304;2023-06-26T01:28:54;10.45;;;7.20;;
74912;SDS011;63878;55.624;37.304;2023-06-26T01:38:57;10.32;;;7.65;;
74912;SDS011;63878;55.624;37.304;2023-06-26T01:49:07;11.02;;;7.50;;
74912;SDS011;63878;55.624;37.304;2023-06-26T01:59:15;13.68;;;8.43;;
74912;SDS011;63878;55.624;37.304;2023-06-26T02:19:19;14.07;;;7.88;;
74912;SDS011;63878;55.624;37.304;2023-06-26T02:29:19;13.50;;;8.32;;
74912;SDS011;63878;55.624;37.304;2023-06-26T02:39:20;15.02;;;9.57;;
74912;SDS011;63878;55.624;37.304;2023-06-26T02:49:21;10.55;;;7.80;;
74912;SDS011;63878;55.624;37.304;2023-06-26T02:59:21;12.30;;;8.32;;
74912;SDS011;63878;55.624;37.304;2023-06-26T03:09:22;15.57;;;10.18;;
74912;SDS011;63878;55.624;37.304;2023-06-26T03:19:22;13.50;;;10.32;;
74912;SDS011;63878;55.624;37.304;2023-06-26T03:29:23;13.43;;;9.90;;
74912;SDS011;63878;55.624;37.304;2023-06-26T03:39:23;18.92;;;10.98;;
74912;SDS011;63878;55.624;37.304;2023-06-26T03:49:24;15.63;;;10.90;;
74912;SDS011;63878;55.624;37.304;2023-06-26T03:59:24;17.58;;;10.07;;
74912;SDS011;63878;55.624;37.304;2023-06-26T04:09:25;10.30;;;6.68;;
74912;SDS011;63878;55.624;37.304;2023-06-26T04:19:26;15.90;;;9.13;;
74912;SDS011;63878;55.624;37.304;2023-06-26T04:29:26;13.63;;;9.32;;
74912;SDS011;63878;55.624;37.304;2023-06-26T04:39:27;15.25;;;9.75;;
74912;SDS011;63878;55.624;37.304;2023-06-26T04:49:27;8.75;;;5.85;;
74912;SDS011;63878;55.624;37.304;2023-06-26T04:59:28;8.85;;;6.20;;
74912;SDS011;63878;55.624;37.304;2023-06-26T05:09:29;9.70;;;7.10;;
74912;SDS011;63878;55.624;37.304;2023-06-26T05:19:29;10.15;;;7.00;;
74912;SDS011;63878;55.624;37.304;2023-06-26T05:29:31;10.95;;;6.65;;
74912;SDS011;63878;55.624;37.304;2023-06-26T05:39:32;10.00;;;5.97;;
74912;SDS011;63878;55.624;37.304;2023-06-26T05:49:33;7.65;;;5.80;;
74912;SDS011;63878;55.624;37.304;2023-06-26T05:59:34;8.65;;;5.00;;
74912;SDS011;63878;55.624;37.304;2023-06-26T06:09:37;8.77;;;5.35;;
74912;SDS011;63878;55.624;37.304;2023-06-26T06:19:37;8.15;;;6.28;;
74912;SDS011;63878;55.624;37.304;2023-06-26T06:29:38;10.18;;;6.50;;
74912;SDS011;63878;55.624;37.304;2023-06-26T06:39:38;11.30;;;6.88;;
74912;SDS011;63878;55.624;37.304;2023-06-26T06:49:39;9.57;;;6.07;;
74912;SDS011;63878;55.624;37.304;2023-06-26T06:59:39;6.20;;;5.32;;
74912;SDS011;63878;55.624;37.304;2023-06-26T07:09:40;7.05;;;4.90;;
74912;SDS011;63878;55.624;37.304;2023-06-26T07:19:40;5.57;;;4.93;;
74912;SDS011;63878;55.624;37.304;2023-06-26T07:29:41;6.97;;;5.30;;
74912;SDS011;63878;55.624;37.304;2023-06-26T07:49:43;5.72;;;5.22;;
74912;SDS011;63878;55.624;37.304;2023-06-26T07:59:43;4.70;;;4.22;;
74912;SDS011;63878;55.624;37.304;2023-06-26T08:09:44;5.72;;;3.97;;
74912;SDS011;63878;55.624;37.304;2023-06-26T08:19:44;6.78;;;5.60;;
74912;SDS011;63878;55.624;37.304;2023-06-26T08:29:45;7.53;;;5.35;;
74912;SDS011;63878;55.624;37.304;2023-06-26T08:39:47;4.72;;;2.55;;
74912;SDS011;63878;55.624;37.304;2023-06-26T08:50:01;10.05;;;4.90;;
74912;SDS011;63878;55.624;37.304;2023-06-26T09:00:07;6.65;;;5.22;;
74912;SDS011;63878;55.624;37.304;2023-06-26T09:10:09;5.85;;;4.45;;
74912;SDS011;63878;55.624;37.304;2023-06-26T09:20:09;5.10;;;3.95;;
74912;SDS011;63878;55.624;37.304;2023-06-26T09:30:10;6.10;;;4.38;;
74912;SDS011;63878;55.624;37.304;2023-06-26T09:40:13;5.15;;;4.07;;
74912;SDS011;63878;55.624;37.304;2023-06-26T09:50:23;8.50;;;5.45;;
74912;SDS011;63878;55.624;37.304;2023-06-26T10:00:24;5.63;;;4.53;;
74912;SDS011;63878;55.624;37.304;2023-06-26T10:10:25;6.90;;;5.03;;
74912;SDS011;63878;55.624;37.304;2023-06-26T10:30:28;5.40;;;3.90;;
74912;SDS011;63878;55.624;37.304;2023-06-26T10:40:40;4.47;;;3.50;;
74912;SDS011;63878;55.624;37.304;2023-06-26T10:50:47;4.35;;;2.95;;
74912;SDS011;63878;55.624;37.304;2023-06-26T11:00:49;4.90;;;3.65;;
74912;SDS011;63878;55.624;37.304;2023-06-26T11:10:51;6.20;;;5.03;;
74912;SDS011;63878;55.624;37.304;2023-06-26T11:20:53;5.40;;;4.78;;
74912;SDS011;63878;55.624;37.304;2023-06-26T11:30:54;5.13;;;4.35;;
74912;SDS011;63878;55.624;37.304;2023-06-26T11:40:55;7.13;;;4.40;;
74912;SDS011;63878;55.624;37.304;2023-06-26T11:50:55;6.05;;;4.20;;
74912;SDS011;63878;55.624;37.304;2023-06-26T12:00:56;6.57;;;5.28;;
74912;SDS011;63878;55.624;37.304;2023-06-26T12:10:57;8.20;;;6.18;;
74912;SDS011;63878;55.624;37.304;2023-06-26T12:20:57;6.50;;;4.40;;
74912;SDS011;63878;55.624;37.304;2023-06-26T12:31:14;8.37;;;5.30;;
74912;SDS011;63878;55.624;37.304;2023-06-26T12:41:15;6.72;;;4.90;;
74912;SDS011;63878;55.624;37.304;2023-06-26T12:51:16;9.27;;;4.50;;
74912;SDS011;63878;55.624;37.304;2023-06-26T13:01:17;5.32;;;4.25;;
74912;SDS011;63878;55.624;37.304;2023-06-26T13:11:18;5.28;;;2.97;;
74912;SDS011;63878;55.624;37.304;2023-06-26T13:21:18;11.60;;;7.27;;
74912;SDS011;63878;55.624;37.304;2023-06-26T13:31:19;6.95;;;5.32;;
74912;SDS011;63878;55.624;37.304;2023-06-26T13:41:19;7.40;;;4.93;;
74912;SDS011;63878;55.624;37.304;2023-06-26T13:51:20;9.43;;;5.47;;
74912;SDS011;63878;55.624;37.304;2023-06-26T14:01:20;11.18;;;5.35;;
74912;SDS011;63878;55.624;37.304;2023-06-26T14:11:21;5.13;;;3.33;;
74912;SDS011;63878;55.624;37.304;2023-06-26T14:21:22;6.28;;;4.90;;
74912;SDS011;63878;55.624;37.304;2023-06-26T14:31:22;5.83;;;4.43;;
74912;SDS011;63878;55.624;37.304;2023-06-26T14:41:23;10.65;;;5.50;;
74912;SDS011;63878;55.624;37.304;2023-06-26T14:51:23;8.60;;;5.70;;
74912;SDS011;63878;55.624;37.304;2023-06-26T15:01:24;8.23;;;5.00;;
74912;SDS011;63878;55.624;37.304;2023-06-26T15:11:24;6.03;;;4.73;;
74912;SDS011;63878;55.624;37.304;2023-06-26T15:21:26;7.57;;;5.07;;
74912;SDS011;63878;55.624;37.304;2023-06-26T15:31:28;5.28;;;3.38;;
74912;SDS011;63878;55.624;37.304;2023-06-26T15:41:29;4.95;;;4.30;;
74912;SDS011;63878;55.624;37.304;2023-06-26T15:51:29;4.35;;;3.05;;
74912;SDS011;63878;55.624;37.304;2023-06-26T16:01:30;3.80;;;2.97;;
74912;SDS011;63878;55.624;37.304;2023-06-26T16:11:30;11.23;;;6.47;;
74912;SDS011;63878;55.624;37.304;2023-06-26T16:21:31;8.98;;;4.50;;
74912;SDS011;63878;55.624;37.304;2023-06-26T16:31:31;12.87;;;6.00;;
74912;SDS011;63878;55.624;37.304;2023-06-26T16:41:32;6.07;;;3.85;;
74912;SDS011;63878;55.624;37.304;2023-06-26T16:51:33;3.80;;;2.30;;
74912;SDS011;63878;55.624;37.304;2023-06-26T17:01:33;4.50;;;2.85;;
74912;SDS011;63878;55.624;37.304;2023-06-26T17:11:34;5.60;;;3.72;;
74912;SDS011;63878;55.624;37.304;2023-06-26T17:21:35;5.73;;;4.77;;
74912;SDS011;63878;55.624;37.304;2023-06-26T17:31:36;15.23;;;6.15;;
74912;SDS011;63878;55.624;37.304;2023-06-26T17:41:37;5.85;;;3.50;;
74912;SDS011;63878;55.624;37.304;2023-06-26T17:51:37;4.60;;;3.15;;
74912;SDS011;63878;55.624;37.304;2023-06-26T18:01:38;13.48;;;6.35;;
74912;SDS011;63878;55.624;37.304;2023-06-26T18:11:39;7.45;;;4.57;;
74912;SDS011;63878;55.624;37.304;2023-06-26T18:21:39;7.10;;;4.43;;
74912;SDS011;63878;55.624;37.304;2023-06-26T18:31:40;7.90;;;5.00;;
74912;SDS011;63878;55.624;37.304;2023-06-26T18:41:40;8.82;;;5.25;;
74912;SDS011;63878;55.624;37.304;2023-06-26T18:51:41;9.13;;;5.23;;
74912;SDS011;63878;55.624;37.304;2023-06-26T19:01:41;10.10;;;4.90;;
74912;SDS011;63878;55.624;37.304;2023-06-26T19:11:42;8.20;;;4.78;;
74912;SDS011;63878;55.624;37.304;2023-06-26T19:21:42;8.68;;;5.78;;
74912;SDS011;63878;55.624;37.304;2023-06-26T19:31:43;9.38;;;5.88;;
74912;SDS011;63878;55.624;37.304;2023-06-26T19:41:43;11.27;;;5.75;;
74912;SDS011;63878;55.624;37.304;2023-06-26T19:51:44;10.90;;;6.32;;
74912;SDS011;63878;55.624;37.304;2023-06-26T20:01:44;9.65;;;5.65;;
74912;SDS011;63878;55.624;37.304;2023-06-26T20:11:45;7.87;;;5.87;;
74912;SDS011;63878;55.624;37.304;2023-06-26T20:21:46;13.63;;;6.82;;
74912;SDS011;63878;55.624;37.304;2023-06-26T20:31:46;9.60;;;6.07;;
74912;SDS011;63878;55.624;37.304;2023-06-26T20:41:47;10.13;;;5.05;;
74912;SDS011;63878;55.624;37.304;2023-06-26T20:51:50;8.90;;;5.70;;
74912;SDS011;63878;55.624;37.304;2023-06-26T21:01:55;14.15;;;6.90;;
74912;SDS011;63878;55.624;37.304;2023-06-26T21:11:58;10.77;;;6.45;;
74912;SDS011;63878;55.624;37.304;2023-06-26T21:21:59;9.15;;;5.35;;
74912;SDS011;63878;55.624;37.304;2023-06-26T21:32:03;7.78;;;6.25;;
74912;SDS011;63878;55.624;37.304;2023-06-26T21:42:04;4.93;;;4.13;;
74912;SDS011;63878;55.624;37.304;2023-06-26T21:52:05;6.17;;;3.40;;
74912;SDS011;63878;55.624;37.304;2023-06-26T22:02:07;13.07;;;7.05;;
74912;SDS011;63878;55.624;37.304;2023-06-26T22:12:07;6.43;;;4.35;;
74912;SDS011;63878;55.624;37.304;2023-06-26T22:22:08;5.67;;;3.50;;
74912;SDS011;63878;55.624;37.304;2023-06-26T22:32:08;5.38;;;3.50;;
74912;SDS011;63878;55.624;37.304;2023-06-26T22:42:09;8.32;;;4.10;;
74912;SDS011;63878;55.624;37.304;2023-06-26T22:52:09;6.28;;;3.70;;
74912;SDS011;63878;55.624;37.304;2023-06-26T23:02:10;9.82;;;4.82;;
74912;SDS011;63878;55.624;37.304;2023-06-26T23:12:10;8.73;;;3.60;;
74912;SDS011;63878;55.624;37.304;2023-06-26T23:22:11;4.63;;;3.47;;
74912;SDS011;63878;55.624;37.304;2023-06-26T23:32:11;5.68;;;3.38;;
74912;SDS011;63878;55.624;37.304;2023-06-26T23:42:13;6.10;;;3.72;;
74912;SDS011;63878;55.624;37.304;2023-06-26T23:52:13;4.63;;;3.00;;
